sensor_id;sensor_type;location;lat;lon;timestamp;temperature;humidity
32534;DHT22;18973;48.580;8.912;2023-04-01T00:00:29;8.30;99.90
32534;DHT22;18973;48.580;8.912;2023-04-01T00:02:55;8.30;99.90
32534;DHT22;18973;48.580;8.912;2023-04-01T00:05:21;8.40;99.90
32534;DHT22;18973;48.580;8.912;2023-04-01T00:07:46;8.30;99.90
32534;DHT22;18973;48.580;8.912;2023-04-01T00:10:13;8.40;99.90
32534;DHT22;18973;48.580;8.912;2023-04-01T00:12:40;8.30;99.90
32534;DHT22;18973;48.580;8.912;2023-04-01T00:15:07;8.30;99.90
32534;DHT22;18973;48.580;8.912;2023-04-01T00:17:33;8.30;99.90
32534;DHT22;18973;48.580;8.912;2023-04-01T00:19:59;8.30;99.90
32534;DHT22;18973;48.580;8.912;2023-04-01T00:22:25;8.40;99.90
32534;DHT22;18973;48.580;8.912;2023-04-01T00:24:51;8.40;99.90
32534;DHT22;18973;48.580;8.912;2023-04-01T00:27:18;8.30;99.90
32534;DHT22;18973;48.580;8.912;2023-04-01T00:29:45;8.30;99.90
32534;DHT22;18973;48.580;8.912;2023-04-01T00:32:11;8.30;99.90
32534;DHT22;18973;48.580;8.912;2023-04-01T00:34:37;8.30;99.90
32534;DHT22;18973;48.580;8.912;2023-04-01T00:37:03;8.30;99.90
32534;DHT22;18973;48.580;8.912;2023-04-01T00:39:30;8.30;99.90
32534;DHT22;18973;48.580;8.912;2023-04-01T00:41:57;8.20;99.90
32534;DHT22;18973;48.580;8.912;2023-04-01T00:44:28;8.20;99.90
32534;DHT22;18973;48.580;8.912;2023-04-01T00:46:54;8.20;99.90
32534;DHT22;18973;48.580;8.912;2023-04-01T00:49:23;8.20;99.90
32534;DHT22;18973;48.580;8.912;2023-04-01T00:51:54;8.20;99.90
32534;DHT22;18973;48.580;8.912;2023-04-01T00:54:22;8.10;99.90
32534;DHT22;18973;48.580;8.912;2023-04-01T00:57:11;8.10;99.90
32534;DHT22;18973;48.580;8.912;2023-04-01T00:59:42;8.20;99.90
32534;DHT22;18973;48.580;8.912;2023-04-01T01:02:11;8.10;99.90
32534;DHT22;18973;48.580;8.912;2023-04-01T01:04:38;8.20;99.90
32534;DHT22;18973;48.580;8.912;2023-04-01T01:07:46;8.10;99.90
32534;DHT22;18973;48.580;8.912;2023-04-01T01:10:23;8.20;99.90
32534;DHT22;18973;48.580;8.912;2023-04-01T01:13:15;8.20;99.90
32534;DHT22;18973;48.580;8.912;2023-04-01T01:18:33;8.30;99.90
32534;DHT22;18973;48.580;8.912;2023-04-01T01:24:03;8.30;99.90
32534;DHT22;18973;48.580;8.912;2023-04-01T01:26:59;8.30;99.90
32534;DHT22;18973;48.580;8.912;2023-04-01T01:32:24;8.20;99.90
32534;DHT22;18973;48.580;8.912;2023-04-01T01:37:38;8.10;99.90
32534;DHT22;18973;48.580;8.912;2023-04-01T01:40:08;8.10;99.90
32534;DHT22;18973;48.580;8.912;2023-04-01T01:42:38;8.10;99.90
32534;DHT22;18973;48.580;8.912;2023-04-01T01:45:07;8.00;99.90
32534;DHT22;18973;48.580;8.912;2023-04-01T01:47:35;8.10;99.90
32534;DHT22;18973;48.580;8.912;2023-04-01T01:50:02;8.10;99.90
32534;DHT22;18973;48.580;8.912;2023-04-01T01:52:30;8.10;99.90
32534;DHT22;18973;48.580;8.912;2023-04-01T01:54:58;8.00;99.90
32534;DHT22;18973;48.580;8.912;2023-04-01T01:57:27;8.00;99.90
32534;DHT22;18973;48.580;8.912;2023-04-01T01:59:59;8.00;99.90
32534;DHT22;18973;48.580;8.912;2023-04-01T02:02:27;7.90;99.90
32534;DHT22;18973;48.580;8.912;2023-04-01T02:04:57;8.00;99.90
32534;DHT22;18973;48.580;8.912;2023-04-01T02:07:30;7.90;99.90
32534;DHT22;18973;48.580;8.912;2023-04-01T02:09:57;8.00;99.90
32534;DHT22;18973;48.580;8.912;2023-04-01T02:12:24;8.00;99.90
32534;DHT22;18973;48.580;8.912;2023-04-01T02:15:22;8.00;99.90
32534;DHT22;18973;48.580;8.912;2023-04-01T02:17:50;7.90;99.90
32534;DHT22;18973;48.580;8.912;2023-04-01T02:20:19;7.90;99.90
32534;DHT22;18973;48.580;8.912;2023-04-01T02:22:52;7.90;99.90
32534;DHT22;18973;48.580;8.912;2023-04-01T02:25:30;7.80;99.90
32534;DHT22;18973;48.580;8.912;2023-04-01T02:28:00;7.80;99.90
32534;DHT22;18973;48.580;8.912;2023-04-01T02:30:32;7.80;99.90
32534;DHT22;18973;48.580;8.912;2023-04-01T02:32:59;7.80;99.90
32534;DHT22;18973;48.580;8.912;2023-04-01T02:35:26;7.80;99.90
32534;DHT22;18973;48.580;8.912;2023-04-01T02:37:55;7.80;99.90
32534;DHT22;18973;48.580;8.912;2023-04-01T02:40:21;7.80;99.90
32534;DHT22;18973;48.580;8.912;2023-04-01T02:42:46;7.80;99.90
32534;DHT22;18973;48.580;8.912;2023-04-01T02:45:13;7.80;99.90
32534;DHT22;18973;48.580;8.912;2023-04-01T02:47:39;7.80;99.90
32534;DHT22;18973;48.580;8.912;2023-04-01T02:50:05;7.70;99.90
32534;DHT22;18973;48.580;8.912;2023-04-01T02:52:31;7.70;99.90
32534;DHT22;18973;48.580;8.912;2023-04-01T02:54:58;7.70;99.90
32534;DHT22;18973;48.580;8.912;2023-04-01T02:57:24;7.70;99.90
32534;DHT22;18973;48.580;8.912;2023-04-01T02:59:50;7.70;99.90
32534;DHT22;18973;48.580;8.912;2023-04-01T03:02:16;7.70;99.90
32534;DHT22;18973;48.580;8.912;2023-04-01T03:04:42;7.60;99.90
32534;DHT22;18973;48.580;8.912;2023-04-01T03:07:09;7.60;99.90
32534;DHT22;18973;48.580;8.912;2023-04-01T03:09:38;7.60;99.90
32534;DHT22;18973;48.580;8.912;2023-04-01T03:12:04;7.60;99.90
32534;DHT22;18973;48.580;8.912;2023-04-01T03:14:29;7.50;99.90
32534;DHT22;18973;48.580;8.912;2023-04-01T03:16:55;7.50;99.90
32534;DHT22;18973;48.580;8.912;2023-04-01T03:19:21;7.50;99.90
32534;DHT22;18973;48.580;8.912;2023-04-01T03:21:46;7.60;99.90
32534;DHT22;18973;48.580;8.912;2023-04-01T03:24:12;7.70;99.90
32534;DHT22;18973;48.580;8.912;2023-04-01T03:26:38;7.60;99.90
32534;DHT22;18973;48.580;8.912;2023-04-01T03:29:03;7.60;99.90
32534;DHT22;18973;48.580;8.912;2023-04-01T03:31:30;7.50;99.90
32534;DHT22;18973;48.580;8.912;2023-04-01T03:33:55;7.50;99.90
32534;DHT22;18973;48.580;8.912;2023-04-01T03:36:21;7.40;99.90
32534;DHT22;18973;48.580;8.912;2023-04-01T03:38:47;7.40;99.90
32534;DHT22;18973;48.580;8.912;2023-04-01T03:41:17;7.40;99.90
32534;DHT22;18973;48.580;8.912;2023-04-01T03:43:43;7.40;99.90
32534;DHT22;18973;48.580;8.912;2023-04-01T03:46:09;7.40;99.90
32534;DHT22;18973;48.580;8.912;2023-04-01T03:48:35;7.40;99.90
32534;DHT22;18973;48.580;8.912;2023-04-01T03:51:05;7.40;99.90
32534;DHT22;18973;48.580;8.912;2023-04-01T03:53:31;7.40;99.90
32534;DHT22;18973;48.580;8.912;2023-04-01T03:55:57;7.30;99.90
32534;DHT22;18973;48.580;8.912;2023-04-01T03:58:23;7.30;99.90
32534;DHT22;18973;48.580;8.912;2023-04-01T04:00:48;7.30;99.90
32534;DHT22;18973;48.580;8.912;2023-04-01T04:03:14;7.30;99.90
32534;DHT22;18973;48.580;8.912;2023-04-01T04:05:47;7.30;99.90
32534;DHT22;18973;48.580;8.912;2023-04-01T04:08:13;7.40;99.90
32534;DHT22;18973;48.580;8.912;2023-04-01T04:10:38;7.30;99.90
32534;DHT22;18973;48.580;8.912;2023-04-01T04:13:05;7.30;99.90
32534;DHT22;18973;48.580;8.912;2023-04-01T04:15:31;7.20;99.90
32534;DHT22;18973;48.580;8.912;2023-04-01T04:17:56;7.20;99.90
32534;DHT22;18973;48.580;8.912;2023-04-01T04:20:22;7.20;99.90
32534;DHT22;18973;48.580;8.912;2023-04-01T04:22:47;7.20;99.90
32534;DHT22;18973;48.580;8.912;2023-04-01T04:25:13;7.20;99.90
32534;DHT22;18973;48.580;8.912;2023-04-01T04:27:39;7.20;99.90
32534;DHT22;18973;48.580;8.912;2023-04-01T04:30:06;7.10;99.90
32534;DHT22;18973;48.580;8.912;2023-04-01T04:32:32;7.10;99.90
32534;DHT22;18973;48.580;8.912;2023-04-01T04:34:57;7.10;99.90
32534;DHT22;18973;48.580;8.912;2023-04-01T04:37:23;7.10;99.90
32534;DHT22;18973;48.580;8.912;2023-04-01T04:39:49;7.10;99.90
32534;DHT22;18973;48.580;8.912;2023-04-01T04:42:15;7.20;99.90
32534;DHT22;18973;48.580;8.912;2023-04-01T04:44:43;7.30;99.90
32534;DHT22;18973;48.580;8.912;2023-04-01T04:47:09;7.40;99.90
32534;DHT22;18973;48.580;8.912;2023-04-01T04:49:34;7.40;99.90
32534;DHT22;18973;48.580;8.912;2023-04-01T04:52:00;7.40;99.90
32534;DHT22;18973;48.580;8.912;2023-04-01T04:54:26;7.40;99.90
32534;DHT22;18973;48.580;8.912;2023-04-01T04:56:53;7.50;99.90
32534;DHT22;18973;48.580;8.912;2023-04-01T04:59:19;7.50;99.90
32534;DHT22;18973;48.580;8.912;2023-04-01T05:01:47;7.60;99.90
32534;DHT22;18973;48.580;8.912;2023-04-01T05:04:13;7.60;99.90
32534;DHT22;18973;48.580;8.912;2023-04-01T05:06:39;7.60;99.90
32534;DHT22;18973;48.580;8.912;2023-04-01T05:09:04;7.60;99.90
32534;DHT22;18973;48.580;8.912;2023-04-01T05:11:30;7.60;99.90
32534;DHT22;18973;48.580;8.912;2023-04-01T05:13:56;7.70;99.90
32534;DHT22;18973;48.580;8.912;2023-04-01T05:16:21;7.60;99.90
32534;DHT22;18973;48.580;8.912;2023-04-01T05:18:47;7.60;99.90
32534;DHT22;18973;48.580;8.912;2023-04-01T05:21:14;7.60;99.90
32534;DHT22;18973;48.580;8.912;2023-04-01T05:23:40;7.70;99.90
32534;DHT22;18973;48.580;8.912;2023-04-01T05:26:09;7.70;99.90
32534;DHT22;18973;48.580;8.912;2023-04-01T05:28:35;7.80;99.90
32534;DHT22;18973;48.580;8.912;2023-04-01T05:31:02;7.80;99.90
32534;DHT22;18973;48.580;8.912;2023-04-01T05:33:29;7.80;99.90
32534;DHT22;18973;48.580;8.912;2023-04-01T05:35:55;7.80;99.90
32534;DHT22;18973;48.580;8.912;2023-04-01T05:38:21;7.70;99.90
32534;DHT22;18973;48.580;8.912;2023-04-01T05:40:47;7.80;99.90
32534;DHT22;18973;48.580;8.912;2023-04-01T05:43:12;7.80;99.90
32534;DHT22;18973;48.580;8.912;2023-04-01T05:45:38;7.80;99.90
32534;DHT22;18973;48.580;8.912;2023-04-01T05:48:04;7.80;99.90
32534;DHT22;18973;48.580;8.912;2023-04-01T05:50:30;7.80;99.90
32534;DHT22;18973;48.580;8.912;2023-04-01T05:52:56;7.80;99.90
32534;DHT22;18973;48.580;8.912;2023-04-01T05:55:22;7.80;99.90
32534;DHT22;18973;48.580;8.912;2023-04-01T05:57:47;7.80;99.90
32534;DHT22;18973;48.580;8.912;2023-04-01T06:00:15;7.80;99.90
32534;DHT22;18973;48.580;8.912;2023-04-01T06:02:41;7.80;99.90
32534;DHT22;18973;48.580;8.912;2023-04-01T06:05:18;7.90;99.90
32534;DHT22;18973;48.580;8.912;2023-04-01T06:07:44;7.90;99.90
32534;DHT22;18973;48.580;8.912;2023-04-01T06:10:13;8.00;99.90
32534;DHT22;18973;48.580;8.912;2023-04-01T06:23:05;7.90;99.90
32534;DHT22;18973;48.580;8.912;2023-04-01T06:25:42;7.90;99.90
32534;DHT22;18973;48.580;8.912;2023-04-01T06:53:02;8.20;99.90
32534;DHT22;18973;48.580;8.912;2023-04-01T06:55:57;8.20;99.90
32534;DHT22;18973;48.580;8.912;2023-04-01T06:58:27;8.30;99.90
32534;DHT22;18973;48.580;8.912;2023-04-01T07:00:58;8.30;99.90
32534;DHT22;18973;48.580;8.912;2023-04-01T07:04:29;8.40;99.90
32534;DHT22;18973;48.580;8.912;2023-04-01T07:06:38;8.40;99.90
32534;DHT22;18973;48.580;8.912;2023-04-01T07:09:16;8.40;99.90
32534;DHT22;18973;48.580;8.912;2023-04-01T07:11:43;8.40;99.90
32534;DHT22;18973;48.580;8.912;2023-04-01T07:14:30;8.40;99.90
32534;DHT22;18973;48.580;8.912;2023-04-01T07:17:14;8.40;99.90
32534;DHT22;18973;48.580;8.912;2023-04-01T07:19:48;8.40;99.90
32534;DHT22;18973;48.580;8.912;2023-04-01T07:24:43;8.50;99.90
32534;DHT22;18973;48.580;8.912;2023-04-01T07:27:12;8.50;99.90
32534;DHT22;18973;48.580;8.912;2023-04-01T07:29:38;8.60;99.90
32534;DHT22;18973;48.580;8.912;2023-04-01T07:34:50;8.60;99.90
32534;DHT22;18973;48.580;8.912;2023-04-01T07:42:45;8.70;99.90
32534;DHT22;18973;48.580;8.912;2023-04-01T07:45:38;8.80;99.90
32534;DHT22;18973;48.580;8.912;2023-04-01T07:50:55;8.80;99.90
32534;DHT22;18973;48.580;8.912;2023-04-01T07:53:26;8.80;99.90
32534;DHT22;18973;48.580;8.912;2023-04-01T07:56:12;8.80;99.90
32534;DHT22;18973;48.580;8.912;2023-04-01T07:58:59;8.90;99.90
32534;DHT22;18973;48.580;8.912;2023-04-01T08:05:03;8.80;99.90
32534;DHT22;18973;48.580;8.912;2023-04-01T08:08:16;8.80;99.90
32534;DHT22;18973;48.580;8.912;2023-04-01T08:10:43;8.80;99.90
32534;DHT22;18973;48.580;8.912;2023-04-01T08:21:02;8.70;99.90
32534;DHT22;18973;48.580;8.912;2023-04-01T08:23:32;8.80;99.90
32534;DHT22;18973;48.580;8.912;2023-04-01T08:26:13;8.70;99.90
32534;DHT22;18973;48.580;8.912;2023-04-01T08:29:10;8.70;99.90
32534;DHT22;18973;48.580;8.912;2023-04-01T08:31:54;8.80;99.90
32534;DHT22;18973;48.580;8.912;2023-04-01T08:34:25;8.70;99.90
32534;DHT22;18973;48.580;8.912;2023-04-01T08:37:07;8.70;99.90
32534;DHT22;18973;48.580;8.912;2023-04-01T08:39:39;8.70;99.90
32534;DHT22;18973;48.580;8.912;2023-04-01T08:48:08;8.70;99.90
32534;DHT22;18973;48.580;8.912;2023-04-01T08:58:54;8.80;99.90
32534;DHT22;18973;48.580;8.912;2023-04-01T09:01:46;8.80;99.90
32534;DHT22;18973;48.580;8.912;2023-04-01T09:12:56;9.00;99.90
32534;DHT22;18973;48.580;8.912;2023-04-01T09:21:19;9.00;99.90
32534;DHT22;18973;48.580;8.912;2023-04-01T09:26:53;9.20;99.90
32534;DHT22;18973;48.580;8.912;2023-04-01T09:29:39;9.20;99.90
32534;DHT22;18973;48.580;8.912;2023-04-01T09:59:43;9.70;99.90
32534;DHT22;18973;48.580;8.912;2023-04-01T10:02:43;9.60;99.90
32534;DHT22;18973;48.580;8.912;2023-04-01T10:16:14;9.50;99.90
32534;DHT22;18973;48.580;8.912;2023-04-01T10:18:53;9.50;99.90
32534;DHT22;18973;48.580;8.912;2023-04-01T10:46:27;10.00;99.90
32534;DHT22;18973;48.580;8.912;2023-04-01T11:12:33;9.60;99.90
32534;DHT22;18973;48.580;8.912;2023-04-01T11:29:43;9.70;99.90
32534;DHT22;18973;48.580;8.912;2023-04-01T11:32:36;9.80;99.90
32534;DHT22;18973;48.580;8.912;2023-04-01T11:35:22;9.80;99.90
32534;DHT22;18973;48.580;8.912;2023-04-01T11:44:09;9.90;99.90
32534;DHT22;18973;48.580;8.912;2023-04-01T11:47:00;9.80;99.90
32534;DHT22;18973;48.580;8.912;2023-04-01T11:57:43;9.70;99.90
32534;DHT22;18973;48.580;8.912;2023-04-01T12:06:38;9.80;99.90
32534;DHT22;18973;48.580;8.912;2023-04-01T12:20:57;10.10;99.90
32534;DHT22;18973;48.580;8.912;2023-04-01T12:23:45;10.20;99.90
32534;DHT22;18973;48.580;8.912;2023-04-01T12:26:40;10.00;99.90
32534;DHT22;18973;48.580;8.912;2023-04-01T12:40:40;10.10;99.90
32534;DHT22;18973;48.580;8.912;2023-04-01T12:51:35;10.40;99.90
32534;DHT22;18973;48.580;8.912;2023-04-01T12:56:54;10.50;99.90
32534;DHT22;18973;48.580;8.912;2023-04-01T13:00:09;10.60;99.90
32534;DHT22;18973;48.580;8.912;2023-04-01T13:06:23;11.10;99.90
32534;DHT22;18973;48.580;8.912;2023-04-01T13:13:53;11.20;99.90
32534;DHT22;18973;48.580;8.912;2023-04-01T13:16:31;11.10;99.90
32534;DHT22;18973;48.580;8.912;2023-04-01T13:19:13;11.20;99.90
32534;DHT22;18973;48.580;8.912;2023-04-01T13:24:39;10.80;99.90
32534;DHT22;18973;48.580;8.912;2023-04-01T13:29:38;10.70;99.90
32534;DHT22;18973;48.580;8.912;2023-04-01T13:34:52;10.80;99.90
32534;DHT22;18973;48.580;8.912;2023-04-01T13:42:57;10.80;99.90
32534;DHT22;18973;48.580;8.912;2023-04-01T13:45:45;10.80;99.90
32534;DHT22;18973;48.580;8.912;2023-04-01T13:56:37;10.80;99.90
32534;DHT22;18973;48.580;8.912;2023-04-01T14:01:53;10.90;99.90
32534;DHT22;18973;48.580;8.912;2023-04-01T14:10:19;10.70;99.90
32534;DHT22;18973;48.580;8.912;2023-04-01T14:13:37;10.90;99.90
32534;DHT22;18973;48.580;8.912;2023-04-01T14:32:14;10.70;99.90
32534;DHT22;18973;48.580;8.912;2023-04-01T14:34:59;10.70;99.90
32534;DHT22;18973;48.580;8.912;2023-04-01T14:38:02;10.70;99.90
32534;DHT22;18973;48.580;8.912;2023-04-01T14:40:54;10.80;99.90
32534;DHT22;18973;48.580;8.912;2023-04-01T14:48:38;10.80;99.90
32534;DHT22;18973;48.580;8.912;2023-04-01T14:51:20;10.90;99.90
32534;DHT22;18973;48.580;8.912;2023-04-01T14:54:04;10.90;99.90
32534;DHT22;18973;48.580;8.912;2023-04-01T14:56:41;10.90;99.90
32534;DHT22;18973;48.580;8.912;2023-04-01T14:59:30;10.90;99.90
32534;DHT22;18973;48.580;8.912;2023-04-01T15:08:10;10.80;99.90
32534;DHT22;18973;48.580;8.912;2023-04-01T15:11:15;10.80;99.90
32534;DHT22;18973;48.580;8.912;2023-04-01T15:27:59;10.70;99.90
32534;DHT22;18973;48.580;8.912;2023-04-01T15:33:16;10.80;99.90
32534;DHT22;18973;48.580;8.912;2023-04-01T15:36:03;10.80;99.90
32534;DHT22;18973;48.580;8.912;2023-04-01T15:38:57;10.80;99.90
32534;DHT22;18973;48.580;8.912;2023-04-01T15:42:04;10.80;99.90
32534;DHT22;18973;48.580;8.912;2023-04-01T15:50:06;10.70;99.90
32534;DHT22;18973;48.580;8.912;2023-04-01T15:53:29;10.70;99.90
32534;DHT22;18973;48.580;8.912;2023-04-01T15:56:24;10.70;99.90
32534;DHT22;18973;48.580;8.912;2023-04-01T15:58:53;10.60;99.90
32534;DHT22;18973;48.580;8.912;2023-04-01T16:06:49;10.80;99.90
32534;DHT22;18973;48.580;8.912;2023-04-01T16:09:56;10.70;99.90
32534;DHT22;18973;48.580;8.912;2023-04-01T16:15:21;10.60;99.90
32534;DHT22;18973;48.580;8.912;2023-04-01T16:18:09;10.60;99.90
32534;DHT22;18973;48.580;8.912;2023-04-01T16:21:07;10.70;99.90
32534;DHT22;18973;48.580;8.912;2023-04-01T16:23:55;10.60;99.90
32534;DHT22;18973;48.580;8.912;2023-04-01T16:26:43;10.60;99.90
32534;DHT22;18973;48.580;8.912;2023-04-01T16:35:10;10.70;99.90
32534;DHT22;18973;48.580;8.912;2023-04-01T16:40:40;10.70;99.90
32534;DHT22;18973;48.580;8.912;2023-04-01T16:43:21;10.60;99.90
32534;DHT22;18973;48.580;8.912;2023-04-01T16:48:58;10.60;99.90
32534;DHT22;18973;48.580;8.912;2023-04-01T16:57:18;10.60;99.90
32534;DHT22;18973;48.580;8.912;2023-04-01T16:59:51;11.20;99.90
32534;DHT22;18973;48.580;8.912;2023-04-01T17:02:23;11.50;99.90
32534;DHT22;18973;48.580;8.912;2023-04-01T17:05:08;11.20;99.90
32534;DHT22;18973;48.580;8.912;2023-04-01T17:13:40;10.60;99.90
32534;DHT22;18973;48.580;8.912;2023-04-01T17:16:27;10.50;99.90
32534;DHT22;18973;48.580;8.912;2023-04-01T17:25:17;10.40;99.90
32534;DHT22;18973;48.580;8.912;2023-04-01T17:33:36;10.30;99.90
32534;DHT22;18973;48.580;8.912;2023-04-01T17:39:30;10.40;99.90
32534;DHT22;18973;48.580;8.912;2023-04-01T17:44:52;10.40;99.90
32534;DHT22;18973;48.580;8.912;2023-04-01T17:53:31;10.30;99.90
32534;DHT22;18973;48.580;8.912;2023-04-01T18:07:35;10.20;99.90
32534;DHT22;18973;48.580;8.912;2023-04-01T18:15:38;9.80;99.90
32534;DHT22;18973;48.580;8.912;2023-04-01T18:26:28;9.80;99.90
32534;DHT22;18973;48.580;8.912;2023-04-01T18:28:59;9.70;99.90
32534;DHT22;18973;48.580;8.912;2023-04-01T18:31:43;9.70;99.90
32534;DHT22;18973;48.580;8.912;2023-04-01T18:37:04;9.60;99.90
32534;DHT22;18973;48.580;8.912;2023-04-01T18:39:52;9.60;99.90
32534;DHT22;18973;48.580;8.912;2023-04-01T18:42:43;9.50;99.90
32534;DHT22;18973;48.580;8.912;2023-04-01T18:50:54;9.30;99.90
32534;DHT22;18973;48.580;8.912;2023-04-01T18:56:26;9.30;99.90
32534;DHT22;18973;48.580;8.912;2023-04-01T18:59:01;9.10;99.90
32534;DHT22;18973;48.580;8.912;2023-04-01T19:01:57;9.00;99.90
32534;DHT22;18973;48.580;8.912;2023-04-01T19:04:39;8.90;99.90
32534;DHT22;18973;48.580;8.912;2023-04-01T19:07:41;8.90;99.90
32534;DHT22;18973;48.580;8.912;2023-04-01T19:10:22;8.80;99.90
32534;DHT22;18973;48.580;8.912;2023-04-01T19:15:39;8.90;99.90
32534;DHT22;18973;48.580;8.912;2023-04-01T19:21:10;8.90;99.90
32534;DHT22;18973;48.580;8.912;2023-04-01T19:29:06;8.50;99.90
32534;DHT22;18973;48.580;8.912;2023-04-01T19:50:59;8.30;99.90
32534;DHT22;18973;48.580;8.912;2023-04-01T19:56:19;8.40;99.90
32534;DHT22;18973;48.580;8.912;2023-04-01T19:59:14;8.20;99.90
32534;DHT22;18973;48.580;8.912;2023-04-01T20:01:49;8.00;99.90
32534;DHT22;18973;48.580;8.912;2023-04-01T20:10:23;8.10;99.90
32534;DHT22;18973;48.580;8.912;2023-04-01T20:12:53;8.00;99.90
32534;DHT22;18973;48.580;8.912;2023-04-01T20:15:39;7.80;99.90
32534;DHT22;18973;48.580;8.912;2023-04-01T20:20:56;7.80;99.90
32534;DHT22;18973;48.580;8.912;2023-04-01T20:25:57;7.60;99.90
32534;DHT22;18973;48.580;8.912;2023-04-01T20:29:18;7.80;99.90
32534;DHT22;18973;48.580;8.912;2023-04-01T20:34:20;7.80;99.90
32534;DHT22;18973;48.580;8.912;2023-04-01T20:51:15;8.00;99.90
32534;DHT22;18973;48.580;8.912;2023-04-01T20:57:05;8.00;99.90
32534;DHT22;18973;48.580;8.912;2023-04-01T21:12:53;8.00;99.90
32534;DHT22;18973;48.580;8.912;2023-04-01T21:23:47;8.30;99.90
32534;DHT22;18973;48.580;8.912;2023-04-01T21:26:47;8.30;99.90
32534;DHT22;18973;48.580;8.912;2023-04-01T21:55:18;8.60;99.90
32534;DHT22;18973;48.580;8.912;2023-04-01T22:09:02;8.60;99.90
32534;DHT22;18973;48.580;8.912;2023-04-01T22:17:26;8.40;99.90
32534;DHT22;18973;48.580;8.912;2023-04-01T22:20:27;8.40;99.90
32534;DHT22;18973;48.580;8.912;2023-04-01T22:23:26;8.40;99.90
32534;DHT22;18973;48.580;8.912;2023-04-01T22:25:56;8.30;99.90
32534;DHT22;18973;48.580;8.912;2023-04-01T22:31:22;8.30;99.90
32534;DHT22;18973;48.580;8.912;2023-04-01T22:36:55;8.20;99.90
32534;DHT22;18973;48.580;8.912;2023-04-01T22:42:43;8.30;99.90
32534;DHT22;18973;48.580;8.912;2023-04-01T22:47:54;8.20;99.90
32534;DHT22;18973;48.580;8.912;2023-04-01T22:53:12;8.00;99.90
32534;DHT22;18973;48.580;8.912;2023-04-01T22:55:44;7.80;99.90
32534;DHT22;18973;48.580;8.912;2023-04-01T22:58:16;7.80;99.90
32534;DHT22;18973;48.580;8.912;2023-04-01T23:00:49;7.80;99.90
32534;DHT22;18973;48.580;8.912;2023-04-01T23:03:22;7.70;99.90
32534;DHT22;18973;48.580;8.912;2023-04-01T23:05:55;7.80;99.90
32534;DHT22;18973;48.580;8.912;2023-04-01T23:10:57;7.60;99.90
32534;DHT22;18973;48.580;8.912;2023-04-01T23:13:32;7.50;99.90
32534;DHT22;18973;48.580;8.912;2023-04-01T23:15:59;7.50;99.90
32534;DHT22;18973;48.580;8.912;2023-04-01T23:19:09;7.60;99.90
32534;DHT22;18973;48.580;8.912;2023-04-01T23:24:33;7.70;99.90
32534;DHT22;18973;48.580;8.912;2023-04-01T23:27:16;7.60;99.90
32534;DHT22;18973;48.580;8.912;2023-04-01T23:29:43;7.50;99.90
32534;DHT22;18973;48.580;8.912;2023-04-01T23:32:19;7.30;99.90
32534;DHT22;18973;48.580;8.912;2023-04-01T23:34:52;7.30;99.90
32534;DHT22;18973;48.580;8.912;2023-04-01T23:37:20;7.30;99.90
32534;DHT22;18973;48.580;8.912;2023-04-01T23:39:49;7.30;99.90
32534;DHT22;18973;48.580;8.912;2023-04-01T23:42:18;7.30;99.90
32534;DHT22;18973;48.580;8.912;2023-04-01T23:44:49;7.30;99.90
32534;DHT22;18973;48.580;8.912;2023-04-01T23:47:20;7.10;99.90
32534;DHT22;18973;48.580;8.912;2023-04-01T23:49:58;7.10;99.90
32534;DHT22;18973;48.580;8.912;2023-04-01T23:52:27;7.20;99.90
32534;DHT22;18973;48.580;8.912;2023-04-01T23:57:36;7.20;99.90
